sensor_id;sensor_type;location;lat;lon;timestamp;temperature;humidity
48589;DHT22;34369;51.174;6.738;2022-10-16T00:00:19;13.00;92.40
48589;DHT22;34369;51.174;6.738;2022-10-16T00:02:52;13.00;92.40
48589;DHT22;34369;51.174;6.738;2022-10-16T00:05:24;13.10;92.40
48589;DHT22;34369;51.174;6.738;2022-10-16T00:07:59;13.00;92.50
48589;DHT22;34369;51.174;6.738;2022-10-16T00:10:33;13.10;92.40
48589;DHT22;34369;51.174;6.738;2022-10-16T00:13:06;13.00;92.30
48589;DHT22;34369;51.174;6.738;2022-10-16T00:18:14;13.00;92.30
48589;DHT22;34369;51.174;6.738;2022-10-16T00:25:55;13.00;92.20
48589;DHT22;34369;51.174;6.738;2022-10-16T00:28:28;12.90;92.20
48589;DHT22;34369;51.174;6.738;2022-10-16T00:31:03;12.80;92.40
48589;DHT22;34369;51.174;6.738;2022-10-16T00:33:38;13.00;92.40
48589;DHT22;34369;51.174;6.738;2022-10-16T00:36:15;12.80;92.30
48589;DHT22;34369;51.174;6.738;2022-10-16T00:38:50;12.90;92.50
48589;DHT22;34369;51.174;6.738;2022-10-16T00:41:25;12.80;92.60
48589;DHT22;34369;51.174;6.738;2022-10-16T00:43:59;12.80;92.50
48589;DHT22;34369;51.174;6.738;2022-10-16T00:46:35;12.80;92.50
48589;DHT22;34369;51.174;6.738;2022-10-16T00:49:12;12.70;92.40
48589;DHT22;34369;51.174;6.738;2022-10-16T00:51:49;12.70;92.40
48589;DHT22;34369;51.174;6.738;2022-10-16T00:54:25;12.60;92.50
48589;DHT22;34369;51.174;6.738;2022-10-16T00:57:00;12.70;92.40
48589;DHT22;34369;51.174;6.738;2022-10-16T00:59:36;12.70;92.50
48589;DHT22;34369;51.174;6.738;2022-10-16T01:02:12;12.70;92.50
48589;DHT22;34369;51.174;6.738;2022-10-16T01:04:50;12.60;92.70
48589;DHT22;34369;51.174;6.738;2022-10-16T01:07:33;12.60;92.60
48589;DHT22;34369;51.174;6.738;2022-10-16T01:10:14;12.70;92.90
48589;DHT22;34369;51.174;6.738;2022-10-16T01:12:54;12.70;92.70
48589;DHT22;34369;51.174;6.738;2022-10-16T01:15:34;12.70;92.70
48589;DHT22;34369;51.174;6.738;2022-10-16T01:18:16;12.60;92.60
48589;DHT22;34369;51.174;6.738;2022-10-16T01:20:56;12.60;92.70
48589;DHT22;34369;51.174;6.738;2022-10-16T01:23:38;12.60;92.90
48589;DHT22;34369;51.174;6.738;2022-10-16T01:26:37;12.70;93.00
48589;DHT22;34369;51.174;6.738;2022-10-16T01:29:34;12.70;92.90
48589;DHT22;34369;51.174;6.738;2022-10-16T01:32:16;12.50;92.70
48589;DHT22;34369;51.174;6.738;2022-10-16T01:34:53;12.60;92.80
48589;DHT22;34369;51.174;6.738;2022-10-16T01:37:32;12.60;92.80
48589;DHT22;34369;51.174;6.738;2022-10-16T01:40:09;12.50;93.00
48589;DHT22;34369;51.174;6.738;2022-10-16T01:42:46;12.50;92.80
48589;DHT22;34369;51.174;6.738;2022-10-16T01:45:21;12.60;92.90
48589;DHT22;34369;51.174;6.738;2022-10-16T01:47:53;12.50;92.80
48589;DHT22;34369;51.174;6.738;2022-10-16T01:50:26;12.50;93.00
48589;DHT22;34369;51.174;6.738;2022-10-16T01:52:59;12.40;92.90
48589;DHT22;34369;51.174;6.738;2022-10-16T01:55:37;12.50;93.00
48589;DHT22;34369;51.174;6.738;2022-10-16T01:58:13;12.50;93.10
48589;DHT22;34369;51.174;6.738;2022-10-16T02:00:47;12.50;93.10
48589;DHT22;34369;51.174;6.738;2022-10-16T02:03:20;12.50;93.00
48589;DHT22;34369;51.174;6.738;2022-10-16T02:05:54;12.60;93.20
48589;DHT22;34369;51.174;6.738;2022-10-16T02:08:28;12.60;93.20
48589;DHT22;34369;51.174;6.738;2022-10-16T02:11:02;12.50;93.20
48589;DHT22;34369;51.174;6.738;2022-10-16T02:13:38;12.50;93.30
48589;DHT22;34369;51.174;6.738;2022-10-16T02:16:16;12.50;93.20
48589;DHT22;34369;51.174;6.738;2022-10-16T02:18:48;12.60;93.40
48589;DHT22;34369;51.174;6.738;2022-10-16T02:21:24;12.60;93.40
48589;DHT22;34369;51.174;6.738;2022-10-16T02:24:02;12.70;93.50
48589;DHT22;34369;51.174;6.738;2022-10-16T02:26:39;12.70;93.40
48589;DHT22;34369;51.174;6.738;2022-10-16T02:29:17;12.70;93.40
48589;DHT22;34369;51.174;6.738;2022-10-16T02:31:57;12.70;93.40
48589;DHT22;34369;51.174;6.738;2022-10-16T02:34:33;12.80;93.40
48589;DHT22;34369;51.174;6.738;2022-10-16T02:37:05;12.80;93.30
48589;DHT22;34369;51.174;6.738;2022-10-16T02:39:38;12.80;93.20
48589;DHT22;34369;51.174;6.738;2022-10-16T02:42:12;12.80;93.40
48589;DHT22;34369;51.174;6.738;2022-10-16T02:47:18;12.90;93.20
48589;DHT22;34369;51.174;6.738;2022-10-16T02:49:49;12.90;93.30
48589;DHT22;34369;51.174;6.738;2022-10-16T02:59:58;13.10;92.90
48589;DHT22;34369;51.174;6.738;2022-10-16T03:02:32;13.10;92.90
48589;DHT22;34369;51.174;6.738;2022-10-16T03:05:04;13.10;92.70
48589;DHT22;34369;51.174;6.738;2022-10-16T03:07:37;13.10;92.60
48589;DHT22;34369;51.174;6.738;2022-10-16T03:10:09;13.00;92.40
48589;DHT22;34369;51.174;6.738;2022-10-16T03:12:41;13.10;92.50
48589;DHT22;34369;51.174;6.738;2022-10-16T03:15:12;13.10;92.40
48589;DHT22;34369;51.174;6.738;2022-10-16T03:17:46;13.10;92.30
48589;DHT22;34369;51.174;6.738;2022-10-16T03:20:18;13.00;92.30
48589;DHT22;34369;51.174;6.738;2022-10-16T03:22:50;13.10;92.40
48589;DHT22;34369;51.174;6.738;2022-10-16T03:25:22;13.10;92.20
48589;DHT22;34369;51.174;6.738;2022-10-16T03:27:54;13.10;92.30
48589;DHT22;34369;51.174;6.738;2022-10-16T03:30:26;13.00;92.10
48589;DHT22;34369;51.174;6.738;2022-10-16T03:32:59;13.00;92.20
48589;DHT22;34369;51.174;6.738;2022-10-16T03:35:31;13.10;92.00
48589;DHT22;34369;51.174;6.738;2022-10-16T03:38:04;13.00;91.90
48589;DHT22;34369;51.174;6.738;2022-10-16T03:40:36;13.00;92.00
48589;DHT22;34369;51.174;6.738;2022-10-16T03:43:08;13.00;91.90
48589;DHT22;34369;51.174;6.738;2022-10-16T03:45:39;13.00;91.90
48589;DHT22;34369;51.174;6.738;2022-10-16T03:48:13;12.90;92.00
48589;DHT22;34369;51.174;6.738;2022-10-16T03:50:45;12.90;91.80
48589;DHT22;34369;51.174;6.738;2022-10-16T03:53:18;13.00;92.30
48589;DHT22;34369;51.174;6.738;2022-10-16T03:55:53;12.90;91.90
48589;DHT22;34369;51.174;6.738;2022-10-16T03:58:25;12.90;91.70
48589;DHT22;34369;51.174;6.738;2022-10-16T04:03:30;12.80;91.60
48589;DHT22;34369;51.174;6.738;2022-10-16T04:06:02;12.80;91.50
48589;DHT22;34369;51.174;6.738;2022-10-16T04:18:46;12.80;91.70
48589;DHT22;34369;51.174;6.738;2022-10-16T04:21:18;12.70;91.70
48589;DHT22;34369;51.174;6.738;2022-10-16T04:23:50;12.70;91.70
48589;DHT22;34369;51.174;6.738;2022-10-16T04:28:54;12.50;91.60
48589;DHT22;34369;51.174;6.738;2022-10-16T04:31:26;12.60;91.80
48589;DHT22;34369;51.174;6.738;2022-10-16T04:34:00;12.60;91.80
48589;DHT22;34369;51.174;6.738;2022-10-16T04:36:32;12.60;91.70
48589;DHT22;34369;51.174;6.738;2022-10-16T04:39:04;12.60;91.80
48589;DHT22;34369;51.174;6.738;2022-10-16T04:44:08;12.50;91.80
48589;DHT22;34369;51.174;6.738;2022-10-16T04:46:39;12.50;91.80
48589;DHT22;34369;51.174;6.738;2022-10-16T04:49:13;12.50;92.00
48589;DHT22;34369;51.174;6.738;2022-10-16T04:51:44;12.50;92.10
48589;DHT22;34369;51.174;6.738;2022-10-16T04:59:23;12.50;91.90
48589;DHT22;34369;51.174;6.738;2022-10-16T05:04:29;12.50;91.90
48589;DHT22;34369;51.174;6.738;2022-10-16T05:09:33;12.50;92.00
48589;DHT22;34369;51.174;6.738;2022-10-16T05:19:44;12.40;91.90
48589;DHT22;34369;51.174;6.738;2022-10-16T05:24:48;12.50;92.10
48589;DHT22;34369;51.174;6.738;2022-10-16T05:27:19;12.40;92.00
48589;DHT22;34369;51.174;6.738;2022-10-16T05:32:24;12.30;92.10
48589;DHT22;34369;51.174;6.738;2022-10-16T05:34:57;9.30;91.30
48589;DHT22;34369;51.174;6.738;2022-10-16T05:37:30;12.40;92.10
48589;DHT22;34369;51.174;6.738;2022-10-16T05:40:02;12.30;92.00
48589;DHT22;34369;51.174;6.738;2022-10-16T05:42:35;12.20;92.10
48589;DHT22;34369;51.174;6.738;2022-10-16T05:45:09;12.40;92.10
48589;DHT22;34369;51.174;6.738;2022-10-16T05:47:42;12.30;92.10
48589;DHT22;34369;51.174;6.738;2022-10-16T05:50:15;12.30;92.20
48589;DHT22;34369;51.174;6.738;2022-10-16T05:52:48;12.40;92.20
48589;DHT22;34369;51.174;6.738;2022-10-16T05:55:20;12.50;92.40
48589;DHT22;34369;51.174;6.738;2022-10-16T05:57:56;12.40;92.20
48589;DHT22;34369;51.174;6.738;2022-10-16T06:05:36;12.50;92.40
48589;DHT22;34369;51.174;6.738;2022-10-16T06:10:41;12.30;92.30
48589;DHT22;34369;51.174;6.738;2022-10-16T06:13:15;12.40;92.30
48589;DHT22;34369;51.174;6.738;2022-10-16T06:20:53;12.40;92.30
48589;DHT22;34369;51.174;6.738;2022-10-16T06:23:28;12.60;92.50
48589;DHT22;34369;51.174;6.738;2022-10-16T06:26:05;12.40;92.30
48589;DHT22;34369;51.174;6.738;2022-10-16T06:28:39;12.50;92.40
48589;DHT22;34369;51.174;6.738;2022-10-16T06:31:12;12.40;92.80
48589;DHT22;34369;51.174;6.738;2022-10-16T06:33:45;12.50;92.40
48589;DHT22;34369;51.174;6.738;2022-10-16T06:36:23;12.20;92.30
48589;DHT22;34369;51.174;6.738;2022-10-16T06:38:56;12.50;92.30
48589;DHT22;34369;51.174;6.738;2022-10-16T06:41:29;12.50;92.40
48589;DHT22;34369;51.174;6.738;2022-10-16T06:44:06;12.50;92.40
48589;DHT22;34369;51.174;6.738;2022-10-16T06:51:45;12.60;92.80
48589;DHT22;34369;51.174;6.738;2022-10-16T06:54:17;12.60;92.90
48589;DHT22;34369;51.174;6.738;2022-10-16T06:56:51;12.70;93.00
48589;DHT22;34369;51.174;6.738;2022-10-16T06:59:25;12.70;93.10
48589;DHT22;34369;51.174;6.738;2022-10-16T07:01:57;12.70;93.20
48589;DHT22;34369;51.174;6.738;2022-10-16T07:04:29;12.90;93.20
48589;DHT22;34369;51.174;6.738;2022-10-16T07:07:03;13.00;92.80
48589;DHT22;34369;51.174;6.738;2022-10-16T07:09:35;13.10;92.70
48589;DHT22;34369;51.174;6.738;2022-10-16T07:14:40;13.10;92.60
48589;DHT22;34369;51.174;6.738;2022-10-16T07:17:12;13.10;92.40
48589;DHT22;34369;51.174;6.738;2022-10-16T07:19:44;13.20;92.60
48589;DHT22;34369;51.174;6.738;2022-10-16T07:22:18;13.20;92.40
48589;DHT22;34369;51.174;6.738;2022-10-16T07:27:23;13.30;92.30
48589;DHT22;34369;51.174;6.738;2022-10-16T07:32:27;13.40;92.40
48589;DHT22;34369;51.174;6.738;2022-10-16T07:34:59;13.30;92.50
48589;DHT22;34369;51.174;6.738;2022-10-16T07:37:32;13.40;92.30
48589;DHT22;34369;51.174;6.738;2022-10-16T07:40:05;13.40;92.40
48589;DHT22;34369;51.174;6.738;2022-10-16T07:42:38;13.40;92.30
48589;DHT22;34369;51.174;6.738;2022-10-16T07:45:10;13.50;92.20
48589;DHT22;34369;51.174;6.738;2022-10-16T07:47:43;13.50;92.30
48589;DHT22;34369;51.174;6.738;2022-10-16T07:52:51;13.60;92.60
48589;DHT22;34369;51.174;6.738;2022-10-16T07:55:23;13.80;92.70
48589;DHT22;34369;51.174;6.738;2022-10-16T08:03:01;14.00;92.70
48589;DHT22;34369;51.174;6.738;2022-10-16T08:08:12;14.40;92.20
48589;DHT22;34369;51.174;6.738;2022-10-16T08:13:20;14.70;91.90
48589;DHT22;34369;51.174;6.738;2022-10-16T08:15:54;14.70;92.20
48589;DHT22;34369;51.174;6.738;2022-10-16T08:18:26;15.00;91.80
48589;DHT22;34369;51.174;6.738;2022-10-16T08:20:59;15.00;92.00
48589;DHT22;34369;51.174;6.738;2022-10-16T08:23:33;15.20;91.90
48589;DHT22;34369;51.174;6.738;2022-10-16T08:26:07;15.60;91.70
48589;DHT22;34369;51.174;6.738;2022-10-16T08:28:40;15.80;91.40
48589;DHT22;34369;51.174;6.738;2022-10-16T08:31:15;16.00;91.00
48589;DHT22;34369;51.174;6.738;2022-10-16T08:33:47;15.90;91.10
48589;DHT22;34369;51.174;6.738;2022-10-16T08:38:53;16.30;90.30
48589;DHT22;34369;51.174;6.738;2022-10-16T08:41:53;16.60;89.30
48589;DHT22;34369;51.174;6.738;2022-10-16T08:44:49;16.60;88.50
48589;DHT22;34369;51.174;6.738;2022-10-16T08:47:48;16.70;88.30
48589;DHT22;34369;51.174;6.738;2022-10-16T08:50:24;16.80;89.50
48589;DHT22;34369;51.174;6.738;2022-10-16T08:52:59;17.50;88.70
48589;DHT22;34369;51.174;6.738;2022-10-16T08:55:41;17.40;89.00
48589;DHT22;34369;51.174;6.738;2022-10-16T08:58:16;18.10;86.70
48589;DHT22;34369;51.174;6.738;2022-10-16T09:00:53;18.10;86.60
48589;DHT22;34369;51.174;6.738;2022-10-16T09:03:46;18.50;86.00
48589;DHT22;34369;51.174;6.738;2022-10-16T09:06:32;19.00;81.00
48589;DHT22;34369;51.174;6.738;2022-10-16T09:09:30;19.30;80.50
48589;DHT22;34369;51.174;6.738;2022-10-16T09:12:21;19.40;79.30
48589;DHT22;34369;51.174;6.738;2022-10-16T09:15:06;19.50;78.70
48589;DHT22;34369;51.174;6.738;2022-10-16T09:17:52;19.70;76.60
48589;DHT22;34369;51.174;6.738;2022-10-16T09:20:32;19.90;75.40
48589;DHT22;34369;51.174;6.738;2022-10-16T09:23:14;20.20;77.60
48589;DHT22;34369;51.174;6.738;2022-10-16T09:25:50;20.40;76.80
48589;DHT22;34369;51.174;6.738;2022-10-16T09:28:24;20.70;76.40
48589;DHT22;34369;51.174;6.738;2022-10-16T09:30:56;20.90;73.70
48589;DHT22;34369;51.174;6.738;2022-10-16T09:33:30;21.20;73.20
48589;DHT22;34369;51.174;6.738;2022-10-16T09:36:06;21.30;71.10
48589;DHT22;34369;51.174;6.738;2022-10-16T09:38:38;21.40;70.50
48589;DHT22;34369;51.174;6.738;2022-10-16T09:41:16;21.30;69.80
48589;DHT22;34369;51.174;6.738;2022-10-16T09:43:53;21.30;68.50
48589;DHT22;34369;51.174;6.738;2022-10-16T09:46:28;21.20;68.20
48589;DHT22;34369;51.174;6.738;2022-10-16T09:49:05;21.10;67.00
48589;DHT22;34369;51.174;6.738;2022-10-16T09:51:48;20.90;66.70
48589;DHT22;34369;51.174;6.738;2022-10-16T09:54:21;20.60;66.60
48589;DHT22;34369;51.174;6.738;2022-10-16T09:57:04;20.50;66.90
48589;DHT22;34369;51.174;6.738;2022-10-16T09:59:47;20.50;67.10
48589;DHT22;34369;51.174;6.738;2022-10-16T10:02:29;20.40;67.40
48589;DHT22;34369;51.174;6.738;2022-10-16T10:05:04;20.40;66.90
48589;DHT22;34369;51.174;6.738;2022-10-16T10:07:43;20.40;67.40
48589;DHT22;34369;51.174;6.738;2022-10-16T10:10:21;20.50;67.30
48589;DHT22;34369;51.174;6.738;2022-10-16T10:13:03;20.50;66.30
48589;DHT22;34369;51.174;6.738;2022-10-16T10:15:42;20.60;66.30
48589;DHT22;34369;51.174;6.738;2022-10-16T10:21:14;20.50;65.10
48589;DHT22;34369;51.174;6.738;2022-10-16T10:23:55;20.40;65.70
48589;DHT22;34369;51.174;6.738;2022-10-16T10:26:29;20.30;65.20
48589;DHT22;34369;51.174;6.738;2022-10-16T10:29:04;20.20;65.50
48589;DHT22;34369;51.174;6.738;2022-10-16T10:31:45;20.20;64.30
48589;DHT22;34369;51.174;6.738;2022-10-16T10:34:34;20.10;64.50
48589;DHT22;34369;51.174;6.738;2022-10-16T10:37:23;19.90;65.10
48589;DHT22;34369;51.174;6.738;2022-10-16T10:40:12;19.70;65.10
48589;DHT22;34369;51.174;6.738;2022-10-16T10:42:55;19.70;65.40
48589;DHT22;34369;51.174;6.738;2022-10-16T10:45:38;19.60;65.90
48589;DHT22;34369;51.174;6.738;2022-10-16T10:48:29;19.50;66.60
48589;DHT22;34369;51.174;6.738;2022-10-16T10:51:23;19.50;66.40
48589;DHT22;34369;51.174;6.738;2022-10-16T10:54:10;19.50;66.30
48589;DHT22;34369;51.174;6.738;2022-10-16T10:56:47;19.60;66.30
48589;DHT22;34369;51.174;6.738;2022-10-16T10:59:40;19.60;67.40
48589;DHT22;34369;51.174;6.738;2022-10-16T11:02:26;19.70;66.80
48589;DHT22;34369;51.174;6.738;2022-10-16T11:05:16;19.80;67.90
48589;DHT22;34369;51.174;6.738;2022-10-16T11:07:58;19.90;66.60
48589;DHT22;34369;51.174;6.738;2022-10-16T11:10:38;20.00;66.90
48589;DHT22;34369;51.174;6.738;2022-10-16T11:13:24;20.00;66.70
48589;DHT22;34369;51.174;6.738;2022-10-16T11:16:08;20.20;65.90
48589;DHT22;34369;51.174;6.738;2022-10-16T11:18:47;20.30;65.60
48589;DHT22;34369;51.174;6.738;2022-10-16T11:21:24;20.40;65.50
48589;DHT22;34369;51.174;6.738;2022-10-16T11:24:01;20.60;65.30
48589;DHT22;34369;51.174;6.738;2022-10-16T11:26:41;20.50;65.50
48589;DHT22;34369;51.174;6.738;2022-10-16T11:29:19;20.70;65.40
48589;DHT22;34369;51.174;6.738;2022-10-16T11:31:58;20.80;64.70
48589;DHT22;34369;51.174;6.738;2022-10-16T11:34:37;21.00;63.90
48589;DHT22;34369;51.174;6.738;2022-10-16T11:37:19;21.00;63.40
48589;DHT22;34369;51.174;6.738;2022-10-16T11:39:54;21.20;62.60
48589;DHT22;34369;51.174;6.738;2022-10-16T11:42:35;21.20;63.00
48589;DHT22;34369;51.174;6.738;2022-10-16T11:45:21;21.10;62.90
48589;DHT22;34369;51.174;6.738;2022-10-16T11:48:02;21.10;62.60
48589;DHT22;34369;51.174;6.738;2022-10-16T11:50:45;21.10;62.20
48589;DHT22;34369;51.174;6.738;2022-10-16T11:53:29;21.20;62.20
48589;DHT22;34369;51.174;6.738;2022-10-16T11:56:12;21.40;63.10
48589;DHT22;34369;51.174;6.738;2022-10-16T11:58:52;21.40;63.10
48589;DHT22;34369;51.174;6.738;2022-10-16T12:01:31;21.50;61.80
48589;DHT22;34369;51.174;6.738;2022-10-16T12:04:17;21.60;61.60
48589;DHT22;34369;51.174;6.738;2022-10-16T12:06:55;21.70;60.90
48589;DHT22;34369;51.174;6.738;2022-10-16T12:09:34;21.70;61.00
48589;DHT22;34369;51.174;6.738;2022-10-16T12:12:25;21.70;60.60
48589;DHT22;34369;51.174;6.738;2022-10-16T12:15:02;21.80;59.60
48589;DHT22;34369;51.174;6.738;2022-10-16T12:17:47;21.90;61.50
48589;DHT22;34369;51.174;6.738;2022-10-16T12:20:23;21.90;61.40
48589;DHT22;34369;51.174;6.738;2022-10-16T12:23:02;22.00;60.30
48589;DHT22;34369;51.174;6.738;2022-10-16T12:25:39;22.20;60.90
48589;DHT22;34369;51.174;6.738;2022-10-16T12:28:20;22.40;60.50
48589;DHT22;34369;51.174;6.738;2022-10-16T12:30:55;22.70;60.30
48589;DHT22;34369;51.174;6.738;2022-10-16T12:33:30;22.80;60.10
48589;DHT22;34369;51.174;6.738;2022-10-16T12:36:05;23.10;59.10
48589;DHT22;34369;51.174;6.738;2022-10-16T12:38:47;23.30;60.00
48589;DHT22;34369;51.174;6.738;2022-10-16T12:41:27;23.50;57.90
48589;DHT22;34369;51.174;6.738;2022-10-16T12:44:00;23.70;57.50
48589;DHT22;34369;51.174;6.738;2022-10-16T12:46:38;23.80;58.20
48589;DHT22;34369;51.174;6.738;2022-10-16T12:49:30;23.80;57.60
48589;DHT22;34369;51.174;6.738;2022-10-16T12:52:04;23.80;56.70
48589;DHT22;34369;51.174;6.738;2022-10-16T12:54:38;23.80;57.10
48589;DHT22;34369;51.174;6.738;2022-10-16T12:57:34;23.70;55.70
48589;DHT22;34369;51.174;6.738;2022-10-16T13:00:19;23.50;55.60
48589;DHT22;34369;51.174;6.738;2022-10-16T13:03:27;23.40;55.30
48589;DHT22;34369;51.174;6.738;2022-10-16T13:06:22;23.20;55.60
48589;DHT22;34369;51.174;6.738;2022-10-16T13:09:21;23.00;56.10
48589;DHT22;34369;51.174;6.738;2022-10-16T13:12:18;22.90;56.40
48589;DHT22;34369;51.174;6.738;2022-10-16T13:18:13;22.90;58.20
48589;DHT22;34369;51.174;6.738;2022-10-16T13:20:58;23.10;57.50
48589;DHT22;34369;51.174;6.738;2022-10-16T13:23:42;23.30;58.30
48589;DHT22;34369;51.174;6.738;2022-10-16T13:26:26;23.60;58.40
48589;DHT22;34369;51.174;6.738;2022-10-16T13:29:04;23.90;57.50
48589;DHT22;34369;51.174;6.738;2022-10-16T13:31:37;24.30;57.70
48589;DHT22;34369;51.174;6.738;2022-10-16T13:34:14;24.70;58.50
48589;DHT22;34369;51.174;6.738;2022-10-16T13:36:50;25.10;57.00
48589;DHT22;34369;51.174;6.738;2022-10-16T13:39:24;25.40;56.90
48589;DHT22;34369;51.174;6.738;2022-10-16T13:42:01;25.70;57.40
48589;DHT22;34369;51.174;6.738;2022-10-16T13:44:40;26.00;55.50
48589;DHT22;34369;51.174;6.738;2022-10-16T13:47:17;26.30;53.80
48589;DHT22;34369;51.174;6.738;2022-10-16T13:50:03;26.40;52.90
48589;DHT22;34369;51.174;6.738;2022-10-16T13:52:37;26.40;51.80
48589;DHT22;34369;51.174;6.738;2022-10-16T13:55:11;26.40;52.60
48589;DHT22;34369;51.174;6.738;2022-10-16T13:57:44;26.30;52.10
48589;DHT22;34369;51.174;6.738;2022-10-16T14:00:23;26.20;52.00
48589;DHT22;34369;51.174;6.738;2022-10-16T14:03:02;26.00;50.70
48589;DHT22;34369;51.174;6.738;2022-10-16T14:05:36;25.80;51.10
48589;DHT22;34369;51.174;6.738;2022-10-16T14:08:11;25.50;51.40
48589;DHT22;34369;51.174;6.738;2022-10-16T14:10:48;25.10;51.30
48589;DHT22;34369;51.174;6.738;2022-10-16T14:13:27;24.80;51.50
48589;DHT22;34369;51.174;6.738;2022-10-16T14:16:07;24.50;51.60
48589;DHT22;34369;51.174;6.738;2022-10-16T14:18:40;24.20;52.80
48589;DHT22;34369;51.174;6.738;2022-10-16T14:21:14;23.90;52.60
48589;DHT22;34369;51.174;6.738;2022-10-16T14:23:47;23.70;53.40
48589;DHT22;34369;51.174;6.738;2022-10-16T14:26:21;23.40;54.00
48589;DHT22;34369;51.174;6.738;2022-10-16T14:29:11;23.20;54.70
48589;DHT22;34369;51.174;6.738;2022-10-16T14:31:55;23.00;55.10
48589;DHT22;34369;51.174;6.738;2022-10-16T14:34:31;22.70;55.30
48589;DHT22;34369;51.174;6.738;2022-10-16T14:37:14;22.60;55.70
48589;DHT22;34369;51.174;6.738;2022-10-16T14:39:50;22.40;55.60
48589;DHT22;34369;51.174;6.738;2022-10-16T14:42:24;22.30;55.70
48589;DHT22;34369;51.174;6.738;2022-10-16T14:44:57;22.10;56.10
48589;DHT22;34369;51.174;6.738;2022-10-16T14:47:31;21.90;56.60
48589;DHT22;34369;51.174;6.738;2022-10-16T14:50:04;21.70;57.20
48589;DHT22;34369;51.174;6.738;2022-10-16T14:52:39;21.60;57.20
48589;DHT22;34369;51.174;6.738;2022-10-16T14:55:11;21.50;57.80
48589;DHT22;34369;51.174;6.738;2022-10-16T14:57:44;21.40;58.10
48589;DHT22;34369;51.174;6.738;2022-10-16T15:00:19;21.10;58.50
48589;DHT22;34369;51.174;6.738;2022-10-16T15:02:57;21.10;59.30
48589;DHT22;34369;51.174;6.738;2022-10-16T15:05:29;21.00;59.20
48589;DHT22;34369;51.174;6.738;2022-10-16T15:08:02;20.90;59.80
48589;DHT22;34369;51.174;6.738;2022-10-16T15:10:38;20.80;60.10
48589;DHT22;34369;51.174;6.738;2022-10-16T15:13:12;20.70;60.10
48589;DHT22;34369;51.174;6.738;2022-10-16T15:15:45;20.60;60.00
48589;DHT22;34369;51.174;6.738;2022-10-16T15:18:22;20.50;60.30
48589;DHT22;34369;51.174;6.738;2022-10-16T15:20:54;20.40;60.40
48589;DHT22;34369;51.174;6.738;2022-10-16T15:23:26;20.30;60.60
48589;DHT22;34369;51.174;6.738;2022-10-16T15:25:58;20.10;60.40
48589;DHT22;34369;51.174;6.738;2022-10-16T15:28:30;19.90;60.40
48589;DHT22;34369;51.174;6.738;2022-10-16T15:31:04;19.90;60.60
48589;DHT22;34369;51.174;6.738;2022-10-16T15:33:38;19.90;61.10
48589;DHT22;34369;51.174;6.738;2022-10-16T15:36:10;19.60;61.10
48589;DHT22;34369;51.174;6.738;2022-10-16T15:38:42;19.70;61.80
48589;DHT22;34369;51.174;6.738;2022-10-16T15:41:14;19.60;61.90
48589;DHT22;34369;51.174;6.738;2022-10-16T15:43:48;19.60;62.00
48589;DHT22;34369;51.174;6.738;2022-10-16T15:46:24;19.40;62.00
48589;DHT22;34369;51.174;6.738;2022-10-16T15:48:58;19.40;62.40
48589;DHT22;34369;51.174;6.738;2022-10-16T15:51:30;19.40;63.30
48589;DHT22;34369;51.174;6.738;2022-10-16T15:54:03;19.30;62.50
48589;DHT22;34369;51.174;6.738;2022-10-16T15:56:36;19.20;62.50
48589;DHT22;34369;51.174;6.738;2022-10-16T15:59:08;19.20;63.00
48589;DHT22;34369;51.174;6.738;2022-10-16T16:01:40;19.20;63.80
48589;DHT22;34369;51.174;6.738;2022-10-16T16:04:13;18.90;63.80
48589;DHT22;34369;51.174;6.738;2022-10-16T16:06:49;18.90;63.90
48589;DHT22;34369;51.174;6.738;2022-10-16T16:09:22;18.90;64.70
48589;DHT22;34369;51.174;6.738;2022-10-16T16:11:54;18.90;65.00
48589;DHT22;34369;51.174;6.738;2022-10-16T16:14:26;18.80;64.60
48589;DHT22;34369;51.174;6.738;2022-10-16T16:16:58;18.70;64.90
48589;DHT22;34369;51.174;6.738;2022-10-16T16:19:32;18.60;64.50
48589;DHT22;34369;51.174;6.738;2022-10-16T16:22:04;18.60;65.20
48589;DHT22;34369;51.174;6.738;2022-10-16T16:24:36;18.60;65.10
48589;DHT22;34369;51.174;6.738;2022-10-16T16:27:08;18.50;64.90
48589;DHT22;34369;51.174;6.738;2022-10-16T16:29:40;18.50;65.00
48589;DHT22;34369;51.174;6.738;2022-10-16T16:32:12;18.40;64.90
48589;DHT22;34369;51.174;6.738;2022-10-16T16:34:46;18.50;65.30
48589;DHT22;34369;51.174;6.738;2022-10-16T16:37:21;18.20;65.00
48589;DHT22;34369;51.174;6.738;2022-10-16T16:39:53;18.20;66.20
48589;DHT22;34369;51.174;6.738;2022-10-16T16:42:28;18.20;65.70
48589;DHT22;34369;51.174;6.738;2022-10-16T16:45:01;18.20;65.80
48589;DHT22;34369;51.174;6.738;2022-10-16T16:47:36;18.10;65.90
48589;DHT22;34369;51.174;6.738;2022-10-16T16:50:11;17.90;66.00
48589;DHT22;34369;51.174;6.738;2022-10-16T16:52:43;18.00;66.70
48589;DHT22;34369;51.174;6.738;2022-10-16T16:55:15;17.90;66.40
48589;DHT22;34369;51.174;6.738;2022-10-16T16:57:50;17.80;66.60
48589;DHT22;34369;51.174;6.738;2022-10-16T17:00:22;17.80;67.20
48589;DHT22;34369;51.174;6.738;2022-10-16T17:02:54;17.80;67.20
48589;DHT22;34369;51.174;6.738;2022-10-16T17:05:28;17.80;67.40
48589;DHT22;34369;51.174;6.738;2022-10-16T17:08:00;17.70;67.30
48589;DHT22;34369;51.174;6.738;2022-10-16T17:10:32;17.70;67.60
48589;DHT22;34369;51.174;6.738;2022-10-16T17:13:03;17.60;67.70
48589;DHT22;34369;51.174;6.738;2022-10-16T17:15:35;17.50;68.30
48589;DHT22;34369;51.174;6.738;2022-10-16T17:18:07;17.50;68.10
48589;DHT22;34369;51.174;6.738;2022-10-16T17:20:41;17.50;68.80
48589;DHT22;34369;51.174;6.738;2022-10-16T17:23:17;17.50;69.10
48589;DHT22;34369;51.174;6.738;2022-10-16T17:25:50;17.50;69.20
48589;DHT22;34369;51.174;6.738;2022-10-16T17:31:05;17.40;69.50
48589;DHT22;34369;51.174;6.738;2022-10-16T17:33:38;17.40;70.30
48589;DHT22;34369;51.174;6.738;2022-10-16T17:36:12;17.30;69.50
48589;DHT22;34369;51.174;6.738;2022-10-16T17:38:45;17.40;69.80
48589;DHT22;34369;51.174;6.738;2022-10-16T17:41:19;17.30;70.40
48589;DHT22;34369;51.174;6.738;2022-10-16T17:43:52;17.30;70.20
48589;DHT22;34369;51.174;6.738;2022-10-16T17:46:25;17.20;71.00
48589;DHT22;34369;51.174;6.738;2022-10-16T17:48:58;17.20;70.90
48589;DHT22;34369;51.174;6.738;2022-10-16T17:51:31;17.20;71.40
48589;DHT22;34369;51.174;6.738;2022-10-16T17:54:03;17.20;71.40
48589;DHT22;34369;51.174;6.738;2022-10-16T17:56:35;17.10;71.40
48589;DHT22;34369;51.174;6.738;2022-10-16T17:59:07;17.20;72.30
48589;DHT22;34369;51.174;6.738;2022-10-16T18:01:40;17.30;72.80
48589;DHT22;34369;51.174;6.738;2022-10-16T18:04:16;17.10;72.50
48589;DHT22;34369;51.174;6.738;2022-10-16T18:06:49;17.20;72.80
48589;DHT22;34369;51.174;6.738;2022-10-16T18:09:21;17.10;73.40
48589;DHT22;34369;51.174;6.738;2022-10-16T18:11:54;17.10;73.70
48589;DHT22;34369;51.174;6.738;2022-10-16T18:14:31;17.10;73.30